createdAt,value
2023-01-11T00:02:01.128Z,100841.75
2023-01-11T00:04:35.170Z,100837.38
2023-01-11T00:07:10.058Z,100842.09
2023-01-11T00:09:42.571Z,100838.22
2023-01-11T00:12:19.811Z,100837.59
2023-01-11T00:14:52.862Z,100833.94
2023-01-11T00:17:25.893Z,100833.31
2023-01-11T00:19:55.820Z,100826.31
2023-01-11T00:22:27.199Z,100833.41
2023-01-11T00:24:57.270Z,100819.41
2023-01-11T00:27:27.895Z,100836.03
2023-01-11T00:29:58.130Z,100830.59
2023-01-11T00:32:31.258Z,100821.94
2023-01-11T00:35:01.262Z,100809.84
2023-01-11T00:37:31.621Z,100803.69
2023-01-11T00:40:01.558Z,100809.19
2023-01-11T00:42:44.403Z,100811.16
2023-01-11T00:45:56.908Z,100801.25
2023-01-11T00:48:29.978Z,100796.25
2023-01-11T00:51:00.384Z,100788.97
2023-01-11T00:53:30.713Z,100793.31
2023-01-11T00:56:00.660Z,100775.28
2023-01-11T00:58:31.116Z,100780.78
2023-01-11T01:01:05.529Z,100769.31
2023-01-11T01:03:43.803Z,100779.84
2023-01-11T01:06:14.760Z,100774.53
2023-01-11T01:08:45.207Z,100768.47
2023-01-11T01:11:15.276Z,100766.72
2023-01-11T01:13:58.230Z,100760.63
2023-01-11T01:16:28.157Z,100752.72
2023-01-11T01:19:01.289Z,100756.56
2023-01-11T01:21:32.993Z,100749.47
2023-01-11T01:24:43.601Z,100757.22
2023-01-11T01:27:22.146Z,100755.34
2023-01-11T01:29:52.597Z,100750.84
2023-01-11T01:32:22.966Z,100755.84
2023-01-11T01:35:26.762Z,100747.28
2023-01-11T01:38:13.544Z,100741.84
2023-01-11T01:40:44.746Z,100739.38
2023-01-11T01:43:16.454Z,100730.47
2023-01-11T01:45:50.030Z,100730.38
2023-01-11T01:48:29.225Z,100732.03
2023-01-11T01:51:05.164Z,100734.53
2023-01-11T01:56:34.954Z,100729.44
2023-01-11T01:59:13.038Z,100709.06
2023-01-11T02:02:14.281Z,100707.59
2023-01-11T02:04:59.308Z,100709.06
2023-01-11T02:07:35.768Z,100703.63
2023-01-11T02:10:08.187Z,100695.56
2023-01-11T02:12:41.302Z,100686.06
2023-01-11T02:15:13.897Z,100681.69
2023-01-11T02:17:44.532Z,100677.91
2023-01-11T02:20:37.698Z,100666.19
2023-01-11T02:23:43.993Z,100661.06
2023-01-11T02:26:47.133Z,100655.13
2023-01-11T02:29:33.689Z,100647.56
2023-01-11T02:32:19.315Z,100655.19
2023-01-11T02:34:59.938Z,100644.16
2023-01-11T02:37:40.132Z,100661.03
2023-01-11T02:40:16.428Z,100635.72
2023-01-11T02:43:06.639Z,100634.47
2023-01-11T02:45:49.527Z,100631.13
2023-01-11T02:48:29.949Z,100630.19
2023-01-11T02:51:07.071Z,100628.28
2023-01-11T02:53:42.593Z,100628.28
2023-01-11T02:56:16.268Z,100618.69
2023-01-11T02:58:50.529Z,100623.78
2023-01-11T03:01:25.589Z,100617.75
2023-01-11T03:03:56.671Z,100619.41
2023-01-11T03:06:30.165Z,100607.16
2023-01-11T03:09:29.696Z,100604.91
2023-01-11T03:12:22.723Z,100600.50
2023-01-11T03:15:03.766Z,100595.28
2023-01-11T03:17:49.044Z,100596.84
2023-01-11T03:20:28.430Z,100595.78
2023-01-11T03:23:10.854Z,100592.94
2023-01-11T03:25:55.343Z,100584.50
2023-01-11T03:28:34.717Z,100583.00
2023-01-11T03:31:10.878Z,100579.63
2023-01-11T03:33:59.617Z,100563.06
2023-01-11T03:36:36.882Z,100567.19
2023-01-11T03:39:15.265Z,100565.53
2023-01-11T03:41:47.463Z,100572.31
2023-01-11T03:44:21.129Z,100568.63
2023-01-11T03:46:55.834Z,100570.41
2023-01-11T03:49:34.426Z,100560.78
2023-01-11T03:52:06.660Z,100548.66
2023-01-11T03:54:37.052Z,100538.84
2023-01-11T03:57:13.130Z,100548.56
2023-01-11T03:59:44.211Z,100538.84
2023-01-11T04:02:22.627Z,100538.84
2023-01-11T04:04:55.759Z,100539.06
2023-01-11T04:07:25.701Z,100545.59
2023-01-11T04:09:56.030Z,100541.44
2023-01-11T04:12:25.999Z,100530.88
2023-01-11T04:14:56.626Z,100543.94
2023-01-11T04:17:26.838Z,100530.75
2023-01-11T04:19:59.712Z,100536.22
2023-01-11T04:22:29.639Z,100534.94
2023-01-11T04:24:59.918Z,100530.41
2023-01-11T04:27:29.890Z,100531.72
2023-01-11T04:30:00.521Z,100545.50
2023-01-11T04:32:33.092Z,100526.16
2023-01-11T04:35:06.696Z,100535.75
2023-01-11T04:37:36.923Z,100526.97
2023-01-11T04:40:08.725Z,100520.78
2023-01-11T04:42:36.415Z,100506.78
2023-01-11T04:45:07.964Z,100505.44
2023-01-11T04:47:37.956Z,100504.88
2023-01-11T04:50:12.845Z,100494.66
2023-01-11T04:52:43.269Z,100494.66
2023-01-11T04:55:13.563Z,100492.75
2023-01-11T04:57:43.486Z,100488.47
2023-01-11T05:00:16.078Z,100489.19
2023-01-11T05:02:46.268Z,100487.44
2023-01-11T05:05:19.184Z,100477.91
2023-01-11T05:07:51.218Z,100482.19
2023-01-11T05:10:21.703Z,100489.44
2023-01-11T05:12:51.891Z,100477.78
2023-01-11T05:15:22.151Z,100474.13
2023-01-11T05:17:52.086Z,100466.66
2023-01-11T05:20:25.104Z,100459.88
2023-01-11T05:22:55.142Z,100459.03
2023-01-11T05:25:25.550Z,100452.88
2023-01-11T05:27:58.629Z,100446.09
2023-01-11T05:30:28.956Z,100450.13
2023-01-11T05:32:59.421Z,100445.97
2023-01-11T05:35:32.309Z,100446.91
2023-01-11T05:38:02.309Z,100445.75
2023-01-11T05:40:32.832Z,100441.56
2023-01-11T05:43:02.710Z,100434.56
2023-01-11T05:45:32.188Z,100438.84
2023-01-11T05:48:02.534Z,100439.06
2023-01-11T05:50:35.446Z,100442.75
2023-01-11T05:53:05.563Z,100434.56
2023-01-11T05:55:36.094Z,100434.56
2023-01-11T05:58:08.371Z,100434.31
2023-01-11T06:00:38.776Z,100430.53
2023-01-11T06:03:08.761Z,100429.22
2023-01-11T06:05:41.662Z,100426.00
2023-01-11T06:08:12.114Z,100422.44
2023-01-11T06:10:42.414Z,100419.94
2023-01-11T06:13:24.912Z,100410.69
2023-01-11T06:15:55.517Z,100413.28
2023-01-11T06:18:25.460Z,100408.78
2023-01-11T06:20:58.911Z,100406.97
2023-01-11T06:23:30.480Z,100410.53
2023-01-11T06:26:04.249Z,100411.13
2023-01-11T06:28:34.524Z,100414.69
2023-01-11T06:31:05.738Z,100425.41
2023-01-11T06:33:36.551Z,100424.31
2023-01-11T06:36:11.706Z,100414.94
2023-01-11T06:38:41.976Z,100402.44
2023-01-11T06:41:14.111Z,100405.78
2023-01-11T06:43:44.372Z,100411.94
2023-01-11T06:46:15.835Z,100401.25
2023-01-11T06:48:46.703Z,100402.91
2023-01-11T06:51:19.881Z,100398.63
2023-01-11T06:53:50.072Z,100410.28
2023-01-11T06:56:21.585Z,100409.09
2023-01-11T06:58:52.622Z,100408.03
2023-01-11T07:01:25.118Z,100413.97
2023-01-11T07:03:55.519Z,100417.78
2023-01-11T07:06:31.933Z,100416.34
2023-01-11T07:09:02.107Z,100425.38
2023-01-11T07:11:34.915Z,100422.41
2023-01-11T07:14:05.221Z,100421.09
2023-01-11T07:16:35.779Z,100420.84
2023-01-11T07:19:06.077Z,100422.75
2023-01-11T07:21:39.226Z,100423.47
2023-01-11T07:24:09.760Z,100426.09
2023-01-11T07:26:41.493Z,100424.88
2023-01-11T07:29:12.224Z,100436.78
2023-01-11T07:31:42.793Z,100427.50
2023-01-11T07:34:13.036Z,100433.94
2023-01-11T07:36:45.887Z,100440.81
2023-01-11T07:39:16.005Z,100434.38
2023-01-11T07:41:59.051Z,100437.41
2023-01-11T07:44:29.043Z,100433.81
2023-01-11T07:46:59.309Z,100431.06
2023-01-11T07:49:29.720Z,100422.28
2023-01-11T07:52:02.651Z,100430.81
2023-01-11T07:54:32.671Z,100422.28
2023-01-11T07:57:03.123Z,100420.97
2023-01-11T07:59:33.314Z,100424.28
2023-01-11T08:02:03.612Z,100420.38
2023-01-11T08:04:33.973Z,100423.81
2023-01-11T08:07:06.842Z,100420.84
2023-01-11T08:09:36.808Z,100423.94
2023-01-11T08:12:20.138Z,100424.28
2023-01-11T08:14:50.188Z,100416.78
2023-01-11T08:17:20.613Z,100413.56
2023-01-11T08:19:50.596Z,100415.69
2023-01-11T08:22:23.501Z,100407.84
2023-01-11T08:24:53.366Z,100407.63
2023-01-11T08:27:23.624Z,100419.75
2023-01-11T08:29:53.563Z,100417.69
2023-01-11T08:32:23.823Z,100406.63
2023-01-11T08:34:53.879Z,100406.63
2023-01-11T08:37:26.952Z,100403.50
2023-01-11T08:39:58.330Z,100405.03
2023-01-11T08:42:29.320Z,100411.09
2023-01-11T08:44:59.297Z,100408.13
2023-01-11T08:47:29.658Z,100403.59
2023-01-11T08:49:59.651Z,100409.66
2023-01-11T08:52:33.528Z,100403.47
2023-01-11T08:55:07.648Z,100416.41
2023-01-11T08:57:38.549Z,100408.75
2023-01-11T09:00:12.043Z,100400.44
2023-01-11T09:02:42.401Z,100407.09
2023-01-11T09:05:12.792Z,100397.34
2023-01-11T09:07:45.736Z,100400.09
2023-01-11T09:10:17.252Z,100395.56
2023-01-11T09:12:55.132Z,100394.47
2023-01-11T09:15:25.650Z,100385.28
2023-01-11T09:17:56.542Z,100399.19
2023-01-11T09:20:26.719Z,100383.13
2023-01-11T09:22:59.973Z,100391.78
2023-01-11T09:25:29.992Z,100393.78
2023-01-11T09:28:00.646Z,100391.59
2023-01-11T09:30:31.350Z,100367.81
2023-01-11T09:33:01.762Z,100373.88
2023-01-11T09:35:32.034Z,100375.66
2023-01-11T09:38:05.203Z,100371.56
2023-01-11T09:40:43.098Z,100364.28
2023-01-11T09:43:16.795Z,100352.47
2023-01-11T09:45:48.252Z,100369.00
2023-01-11T09:48:28.903Z,100364.44
2023-01-11T09:51:00.172Z,100359.78
2023-01-11T09:53:38.560Z,100360.59
2023-01-11T09:56:14.789Z,100358.44
2023-01-11T09:58:56.790Z,100352.69
2023-01-11T10:01:36.159Z,100361.34
2023-01-11T10:04:41.525Z,100357.66
2023-01-11T10:07:47.005Z,100344.94
2023-01-11T10:18:32.624Z,100362.84
2023-01-11T10:19:41.148Z,100339.78
2023-01-11T10:22:18.202Z,100336.75
2023-01-11T10:24:52.830Z,100350.09
2023-01-11T10:27:33.769Z,100340.13
2023-01-11T10:30:19.927Z,100340.00
2023-01-11T10:33:14.930Z,100348.50
2023-01-11T10:36:02.877Z,100341.50
2023-01-11T10:38:54.654Z,100339.16
2023-01-11T10:41:34.082Z,100337.56
2023-01-11T10:44:28.882Z,100346.50
2023-01-11T10:47:01.959Z,100356.97
2023-01-11T10:49:43.287Z,100341.63
2023-01-11T10:52:25.655Z,100356.00
2023-01-11T10:54:55.998Z,100343.78
2023-01-11T10:57:59.681Z,100338.19
2023-01-11T11:00:48.550Z,100350.94
2023-01-11T11:03:56.973Z,100345.19
2023-01-11T11:06:37.323Z,100338.53
2023-01-11T11:09:17.010Z,100347.00
2023-01-11T11:11:54.265Z,100332.44
2023-01-11T11:14:31.460Z,100334.00
2023-01-11T11:17:15.888Z,100328.75
2023-01-11T11:19:45.899Z,100326.25
2023-01-11T11:22:16.399Z,100322.59
2023-01-11T11:24:51.678Z,100313.16
2023-01-11T11:27:27.237Z,100312.13
2023-01-11T11:29:59.644Z,100311.28
2023-01-11T11:32:36.733Z,100309.22
2023-01-11T11:35:08.068Z,100303.72
2023-01-11T11:37:45.197Z,100301.81
2023-01-11T11:40:31.521Z,100311.72
2023-01-11T11:43:22.261Z,100295.75
2023-01-11T11:46:00.312Z,100301.38
2023-01-11T11:48:36.275Z,100297.41
2023-01-11T11:51:09.265Z,100302.75
2023-01-11T11:53:46.136Z,100297.16
2023-01-11T11:56:24.145Z,100301.16
2023-01-11T11:58:55.553Z,100291.25
2023-01-11T12:01:30.770Z,100286.44
2023-01-11T12:04:13.388Z,100288.69
2023-01-11T12:06:45.035Z,100293.22
2023-01-11T12:09:32.754Z,100285.91
2023-01-11T12:12:03.813Z,100277.22
2023-01-11T12:14:37.102Z,100284.41
2023-01-11T12:17:25.500Z,100282.84
2023-01-11T12:19:58.550Z,100273.66
2023-01-11T12:22:30.779Z,100269.53
2023-01-11T12:25:08.576Z,100259.69
2023-01-11T12:27:46.069Z,100262.19
2023-01-11T12:30:24.553Z,100260.00
2023-01-11T12:33:20.341Z,100260.28
2023-01-11T12:36:03.541Z,100249.25
2023-01-11T12:38:47.109Z,100255.34
2023-01-11T12:41:50.180Z,100253.22
2023-01-11T12:44:32.804Z,100245.94
2023-01-11T12:47:29.443Z,100243.75
2023-01-11T12:50:05.730Z,100250.63
2023-01-11T12:53:00.371Z,100260.84
2023-01-11T12:55:52.489Z,100257.53
2023-01-11T12:58:31.669Z,100250.66
2023-01-11T13:01:23.320Z,100241.25
2023-01-11T13:04:22.533Z,100233.84
2023-01-11T13:07:05.669Z,100238.78
2023-01-11T13:09:54.565Z,100240.06
2023-01-11T13:12:32.520Z,100241.44
2023-01-11T13:15:17.681Z,100242.09
2023-01-11T13:17:53.967Z,100237.56
2023-01-11T13:20:48.634Z,100234.25
2023-01-11T13:23:33.873Z,100237.44
2023-01-11T13:26:18.090Z,100225.00
2023-01-11T13:28:52.029Z,100237.00
2023-01-11T13:31:23.131Z,100234.81
2023-01-11T13:34:00.485Z,100236.88
2023-01-11T13:36:36.121Z,100244.59
2023-01-11T13:39:13.369Z,100242.81
2023-01-11T13:41:51.131Z,100243.34
2023-01-11T13:44:27.242Z,100247.91
2023-01-11T13:47:08.404Z,100247.22
2023-01-11T13:49:46.874Z,100244.75
2023-01-11T13:52:20.284Z,100232.59
2023-01-11T13:55:04.250Z,100241.03
2023-01-11T13:57:53.789Z,100237.16
2023-01-11T14:00:35.732Z,100252.88
2023-01-11T14:03:17.712Z,100242.28
2023-01-11T14:06:06.903Z,100239.94
2023-01-11T14:09:01.306Z,100255.38
2023-01-11T14:11:42.252Z,100246.84
2023-01-11T14:14:41.063Z,100246.00
2023-01-11T14:17:39.944Z,100262.97
2023-01-11T14:20:41.218Z,100251.38
2023-01-11T14:23:16.225Z,100264.75
2023-01-11T14:26:18.086Z,100263.09
2023-01-11T14:29:11.163Z,100255.69
2023-01-11T14:32:10.880Z,100262.97
2023-01-11T14:35:11.545Z,100266.16
2023-01-11T14:38:17.641Z,100259.78
2023-01-11T14:41:02.433Z,100261.03
2023-01-11T14:43:49.120Z,100263.66
2023-01-11T14:47:05.606Z,100256.09
2023-01-11T14:49:50.070Z,100260.22
2023-01-11T14:52:38.537Z,100267.94
2023-01-11T14:55:20.776Z,100270.97
2023-01-11T14:58:18.462Z,100267.94
2023-01-11T15:01:12.006Z,100272.34
2023-01-11T15:03:52.930Z,100271.53
2023-01-11T15:06:23.904Z,100271.25
2023-01-11T15:08:56.684Z,100272.34
2023-01-11T15:11:35.672Z,100266.69
2023-01-11T15:14:38.081Z,100280.09
2023-01-11T15:17:21.217Z,100272.78
2023-01-11T15:19:54.273Z,100278.72
2023-01-11T15:22:32.758Z,100276.34
2023-01-11T15:25:05.599Z,100291.41
2023-01-11T15:27:38.063Z,100280.91
2023-01-11T15:30:27.213Z,100280.09
2023-01-11T15:33:17.792Z,100298.75
2023-01-11T15:36:08.176Z,100304.25
2023-01-11T15:38:43.240Z,100288.38
2023-01-11T15:41:29.873Z,100284.66
2023-01-11T15:44:19.332Z,100295.00
2023-01-11T15:47:10.387Z,100308.53
2023-01-11T15:50:14.451Z,100304.53
2023-01-11T15:53:10.143Z,100314.63
2023-01-11T15:56:12.670Z,100305.09
2023-01-11T15:59:17.427Z,100308.00
2023-01-11T16:02:18.129Z,100317.53
2023-01-11T16:04:52.356Z,100325.25
2023-01-11T16:07:31.132Z,100321.81
2023-01-11T16:10:31.874Z,100319.19
2023-01-11T16:13:15.238Z,100333.25
2023-01-11T16:15:56.644Z,100328.44
2023-01-11T16:18:31.716Z,100331.56
2023-01-11T16:21:06.479Z,100340.41
2023-01-11T16:23:37.179Z,100336.28
2023-01-11T16:26:10.572Z,100346.22
2023-01-11T16:28:51.757Z,100348.44
2023-01-11T16:31:22.645Z,100352.16
2023-01-11T16:33:54.680Z,100354.09
2023-01-11T16:36:26.589Z,100360.59
2023-01-11T16:39:05.275Z,100368.88
2023-01-11T16:41:46.907Z,100371.09
2023-01-11T16:44:27.918Z,100374.13
2023-01-11T16:47:19.844Z,100373.31
2023-01-11T16:49:52.624Z,100380.22
2023-01-11T16:52:45.513Z,100381.03
2023-01-11T16:55:36.070Z,100386.44
2023-01-11T16:58:25.654Z,100395.41
2023-01-11T17:01:01.986Z,100394.72
2023-01-11T17:03:33.821Z,100389.59
2023-01-11T17:06:28.387Z,100395.00
2023-01-11T17:09:00.165Z,100391.13
2023-01-11T17:11:35.006Z,100391.53
2023-01-11T17:14:30.023Z,100393.75
2023-01-11T17:17:04.020Z,100403.41
2023-01-11T17:19:37.422Z,100403.00
2023-01-11T17:22:10.759Z,100406.03
2023-01-11T17:24:46.371Z,100410.31
2023-01-11T17:27:21.800Z,100396.78
2023-01-11T17:29:57.692Z,100394.28
2023-01-11T17:32:37.155Z,100400.38
2023-01-11T17:35:13.422Z,100400.38
2023-01-11T17:37:47.525Z,100409.06
2023-01-11T17:40:26.425Z,100408.81
2023-01-11T17:43:15.497Z,100414.88
2023-01-11T17:45:54.566Z,100418.34
2023-01-11T17:48:29.415Z,100417.38
2023-01-11T17:51:01.278Z,100417.78
2023-01-11T17:53:34.407Z,100419.03
2023-01-11T17:56:07.207Z,100422.47
2023-01-11T17:58:41.113Z,100435.50
2023-01-11T18:01:26.620Z,100438.41
2023-01-11T18:04:01.531Z,100451.38
2023-01-11T18:06:37.121Z,100452.75
2023-01-11T18:09:11.177Z,100457.75
2023-01-11T18:11:44.779Z,100461.44
2023-01-11T18:14:21.603Z,100471.69
2023-01-11T18:17:05.027Z,100474.03
2023-01-11T18:19:53.777Z,100479.56
2023-01-11T18:22:35.288Z,100469.91
2023-01-11T18:25:20.297Z,100460.63
2023-01-11T18:27:51.247Z,100470.31
2023-01-11T18:30:41.017Z,100470.84
2023-01-11T18:33:19.841Z,100472.09
2023-01-11T18:35:54.960Z,100473.75
2023-01-11T18:38:29.126Z,100469.75
2023-01-11T18:41:21.869Z,100483.84
2023-01-11T18:43:52.018Z,100482.88
2023-01-11T18:46:22.777Z,100482.19
2023-01-11T18:48:55.755Z,100489.63
2023-01-11T18:51:31.370Z,100485.06
2023-01-11T18:54:01.484Z,100487.13
2023-01-11T18:56:31.755Z,100483.53
2023-01-11T18:59:01.753Z,100488.25
2023-01-11T19:01:37.659Z,100496.13
2023-01-11T19:04:16.138Z,100490.72
2023-01-11T19:06:46.544Z,100508.28
2023-01-11T19:09:16.485Z,100507.31
2023-01-11T19:11:46.818Z,100518.09
2023-01-11T19:14:17.156Z,100514.91
2023-01-11T19:16:47.460Z,100519.88
2023-01-11T19:19:20.146Z,100517.78
2023-01-11T19:21:50.472Z,100517.66
2023-01-11T19:24:20.463Z,100523.88
2023-01-11T19:26:51.578Z,100533.13
2023-01-11T19:29:24.551Z,100528.16
2023-01-11T19:31:56.046Z,100532.00
2023-01-11T19:34:28.632Z,100536.56
2023-01-11T19:36:58.960Z,100543.03
2023-01-11T19:39:29.017Z,100545.66
2023-01-11T19:42:03.201Z,100546.19
2023-01-11T19:44:35.176Z,100552.16
2023-01-11T19:47:13.601Z,100555.34
2023-01-11T19:49:46.760Z,100563.50
2023-01-11T19:52:21.719Z,100557.94
2023-01-11T19:54:51.879Z,100562.53
2023-01-11T19:57:22.911Z,100565.81
2023-01-11T19:59:53.360Z,100572.44
2023-01-11T20:02:24.749Z,100574.75
2023-01-11T20:04:57.615Z,100573.25
2023-01-11T20:07:28.203Z,100567.28
2023-01-11T20:09:59.312Z,100574.00
2023-01-11T20:12:29.939Z,100580.91
2023-01-11T20:15:01.341Z,100580.81
2023-01-11T20:17:32.857Z,100576.50
2023-01-11T20:20:06.192Z,100588.53
2023-01-11T20:22:36.835Z,100595.25
2023-01-11T20:25:07.838Z,100579.53
2023-01-11T20:27:38.799Z,100575.38
2023-01-11T20:30:11.127Z,100579.09
2023-01-11T20:32:42.551Z,100582.22
2023-01-11T20:35:18.222Z,100572.00
2023-01-11T20:37:48.804Z,100572.97
2023-01-11T20:40:19.487Z,100581.22
2023-01-11T20:42:49.831Z,100586.56
2023-01-11T20:45:20.280Z,100582.19
2023-01-11T20:47:50.604Z,100583.66
2023-01-11T20:50:35.978Z,100586.41
2023-01-11T20:53:06.479Z,100582.97
2023-01-11T20:55:36.508Z,100580.59
2023-01-11T20:58:06.924Z,100585.69
2023-01-11T21:00:37.008Z,100582.63
2023-01-11T21:03:07.483Z,100588.69
2023-01-11T21:05:42.496Z,100583.72
2023-01-11T21:08:12.914Z,100590.88
2023-01-11T21:10:42.862Z,100588.25
2023-01-11T21:13:13.184Z,100584.09
2023-01-11T21:15:43.253Z,100577.91
2023-01-11T21:18:13.670Z,100578.28
2023-01-11T21:20:49.423Z,100581.84
2023-01-11T21:23:19.914Z,100591.06
2023-01-11T21:25:50.089Z,100592.72
2023-01-11T21:28:20.913Z,100585.09
2023-01-11T21:30:51.235Z,100594.78
2023-01-11T21:33:24.252Z,100583.06
2023-01-11T21:35:57.501Z,100581.97
2023-01-11T21:38:30.330Z,100583.41
2023-01-11T21:41:06.877Z,100579.13
2023-01-11T21:43:42.410Z,100591.19
2023-01-11T21:46:13.070Z,100583.78
2023-01-11T21:48:43.538Z,100584.38
2023-01-11T21:51:17.017Z,100575.53
2023-01-11T21:53:47.381Z,100576.63
2023-01-11T21:56:17.689Z,100574.94
2023-01-11T21:58:48.029Z,100570.78
2023-01-11T22:01:18.535Z,100578.28
2023-01-11T22:03:52.322Z,100583.78
2023-01-11T22:06:28.427Z,100582.75
2023-01-11T22:09:15.885Z,100589.53
2023-01-11T22:12:04.087Z,100593.47
2023-01-11T22:14:54.644Z,100589.53
2023-01-11T22:17:41.342Z,100587.97
2023-01-11T22:20:15.260Z,100587.78
2023-01-11T22:22:51.232Z,100593.59
2023-01-11T22:28:51.264Z,100586.13
2023-01-11T22:31:27.386Z,100596.28
2023-01-11T22:33:58.041Z,100599.34
2023-01-11T22:36:29.450Z,100593.19
2023-01-11T22:39:02.006Z,100590.00
2023-01-11T22:41:32.331Z,100596.81
2023-01-11T22:44:02.547Z,100597.19
2023-01-11T22:46:32.875Z,100593.34
2023-01-11T22:49:02.929Z,100607.41
2023-01-11T22:51:33.235Z,100601.69
2023-01-11T22:54:06.517Z,100601.34
2023-01-11T22:56:37.844Z,100598.03
2023-01-11T22:59:08.381Z,100602.66
2023-01-11T23:01:40.651Z,100605.66
2023-01-11T23:04:13.822Z,100601.84
2023-01-11T23:06:45.505Z,100592.22
2023-01-11T23:09:18.643Z,100598.31
2023-01-11T23:12:01.404Z,100602.94
2023-01-11T23:14:33.981Z,100598.31
2023-01-11T23:17:07.299Z,100597.00
2023-01-11T23:19:38.389Z,100606.25
2023-01-11T23:22:09.987Z,100610.94
2023-01-11T23:24:42.789Z,100601.28
2023-01-11T23:27:13.151Z,100596.03
2023-01-11T23:29:43.174Z,100612.94
2023-01-11T23:32:16.305Z,100600.56
2023-01-11T23:34:46.321Z,100609.84
2023-01-11T23:37:16.631Z,100615.91
2023-01-11T23:39:49.144Z,100596.44
2023-01-11T23:42:28.855Z,100606.53
2023-01-11T23:44:59.318Z,100605.81
2023-01-11T23:47:29.797Z,100606.78
2023-01-11T23:50:01.215Z,100602.75
2023-01-11T23:52:33.225Z,100595.09
2023-01-11T23:55:06.102Z,100589.41
2023-01-11T23:57:36.465Z,100586.78
